sensor_id;sensor_type;location;lat;lon;timestamp;pressure;altitude;pressure_sealevel;temperature;humidity
36834;BME280;48003;52.084;5.224;2023-02-04T00:01:37;103326.0;;;11.15;71.11
36834;BME280;48003;52.084;5.224;2023-02-04T00:03:14;103325.0;;;11.1;71.36
36834;BME280;48003;52.084;5.224;2023-02-04T00:04:50;103329.0;;;10.96;72.06
36834;BME280;48003;52.084;5.224;2023-02-04T00:08:04;103328.0;;;10.99;71.78
36834;BME280;48003;52.084;5.224;2023-02-04T00:09:40;103339.00000000001;;;10.85;72.53
36834;BME280;48003;52.084;5.224;2023-02-04T00:11:16;103340.00000000001;;;10.89;72.49
36834;BME280;48003;52.084;5.224;2023-02-04T00:12:52;103342.0;;;10.96;72.39
36834;BME280;48003;52.084;5.224;2023-02-04T00:16:05;103344.0;;;10.82;72.77
36834;BME280;48003;52.084;5.224;2023-02-04T00:17:41;103346.0;;;10.78;73.13
36834;BME280;48003;52.084;5.224;2023-02-04T00:19:18;103344.0;;;10.83;73.0
36834;BME280;48003;52.084;5.224;2023-02-04T00:22:30;103342.0;;;10.71;73.44
36834;BME280;48003;52.084;5.224;2023-02-04T00:24:06;103347.0;;;10.7;73.7
36834;BME280;48003;52.084;5.224;2023-02-04T00:25:42;103346.0;;;10.66;73.8
36834;BME280;48003;52.084;5.224;2023-02-04T00:28:55;103350.0;;;10.77;73.42
36834;BME280;48003;52.084;5.224;2023-02-04T00:30:31;103350.0;;;10.69;73.8
36834;BME280;48003;52.084;5.224;2023-02-04T00:32:08;103355.0;;;10.76;73.59
36834;BME280;48003;52.084;5.224;2023-02-04T00:33:44;103350.0;;;10.81;73.37
36834;BME280;48003;52.084;5.224;2023-02-04T00:36:57;103352.0;;;10.82;73.48
36834;BME280;48003;52.084;5.224;2023-02-04T00:38:33;103353.0;;;10.68;74.13
36834;BME280;48003;52.084;5.224;2023-02-04T00:40:11;103359.99999999999;;;10.61;74.45
36834;BME280;48003;52.084;5.224;2023-02-04T00:44:59;103367.0;;;10.61;74.55
36834;BME280;48003;52.084;5.224;2023-02-04T00:46:35;103366.00000000001;;;10.59;74.66
36834;BME280;48003;52.084;5.224;2023-02-04T00:49:47;103368.0;;;10.49;75.2
36834;BME280;48003;52.084;5.224;2023-02-04T00:51:24;103368.0;;;10.5;75.16
36834;BME280;48003;52.084;5.224;2023-02-04T00:53:01;103375.0;;;10.43;75.72
36834;BME280;48003;52.084;5.224;2023-02-04T00:56:13;103376.0;;;10.47;75.5
36834;BME280;48003;52.084;5.224;2023-02-04T00:57:50;103379.0;;;10.41;75.81
36834;BME280;48003;52.084;5.224;2023-02-04T00:59:26;103380.0;;;10.44;75.91
36834;BME280;48003;52.084;5.224;2023-02-04T01:01:03;103383.0;;;10.45;75.88
36834;BME280;48003;52.084;5.224;2023-02-04T01:04:16;103382.0;;;10.36;76.44
36834;BME280;48003;52.084;5.224;2023-02-04T01:05:53;103383.99999999999;;;10.38;76.49
36834;BME280;48003;52.084;5.224;2023-02-04T01:07:29;103381.0;;;10.39;76.58
36834;BME280;48003;52.084;5.224;2023-02-04T01:10:42;103378.0;;;10.43;76.58
36834;BME280;48003;52.084;5.224;2023-02-04T01:12:18;103381.0;;;10.45;76.58
36834;BME280;48003;52.084;5.224;2023-02-04T01:13:54;103389.00000000001;;;10.41;76.87
36834;BME280;48003;52.084;5.224;2023-02-04T01:17:06;103397.0;;;10.42;77.08
36834;BME280;48003;52.084;5.224;2023-02-04T01:18:42;103400.0;;;10.41;77.2
36834;BME280;48003;52.084;5.224;2023-02-04T01:20:19;103401.0;;;10.43;77.14
36834;BME280;48003;52.084;5.224;2023-02-04T01:21:55;103408.99999999999;;;10.36;77.55
36834;BME280;48003;52.084;5.224;2023-02-04T01:25:08;103414.00000000001;;;10.4;77.58
36834;BME280;48003;52.084;5.224;2023-02-04T01:26:44;103414.00000000001;;;10.41;77.63
36834;BME280;48003;52.084;5.224;2023-02-04T01:28:20;103418.0;;;10.37;77.98
36834;BME280;48003;52.084;5.224;2023-02-04T01:31:33;103416.00000000001;;;10.37;78.03
36834;BME280;48003;52.084;5.224;2023-02-04T01:33:10;103416.00000000001;;;10.34;78.36
36834;BME280;48003;52.084;5.224;2023-02-04T01:34:46;103419.0;;;10.38;78.3
36834;BME280;48003;52.084;5.224;2023-02-04T01:37:58;103419.0;;;10.3;78.75
36834;BME280;48003;52.084;5.224;2023-02-04T01:39:35;103426.0;;;10.26;79.12
36834;BME280;48003;52.084;5.224;2023-02-04T01:41:13;103429.0;;;10.28;79.11
36834;BME280;48003;52.084;5.224;2023-02-04T01:42:50;103438.00000000001;;;10.25;79.3
36834;BME280;48003;52.084;5.224;2023-02-04T01:46:05;103442.0;;;10.19;79.75
36834;BME280;48003;52.084;5.224;2023-02-04T01:47:41;103445.0;;;10.23;79.72
36834;BME280;48003;52.084;5.224;2023-02-04T01:49:19;103441.00000000001;;;10.18;80.05
36834;BME280;48003;52.084;5.224;2023-02-04T01:52:41;103441.00000000001;;;10.25;79.84
36834;BME280;48003;52.084;5.224;2023-02-04T01:54:20;103446.0;;;10.22;79.97
36834;BME280;48003;52.084;5.224;2023-02-04T01:55:57;103448.0;;;10.14;80.49
36834;BME280;48003;52.084;5.224;2023-02-04T01:57:35;103448.0;;;10.15;80.56
36834;BME280;48003;52.084;5.224;2023-02-04T02:00:50;103446.0;;;10.19;80.47
36834;BME280;48003;52.084;5.224;2023-02-04T02:02:45;103452.0;;;10.21;80.47
36834;BME280;48003;52.084;5.224;2023-02-04T02:04:29;103449.0;;;10.17;80.53
36834;BME280;48003;52.084;5.224;2023-02-04T02:06:07;103448.0;;;10.19;80.55
36834;BME280;48003;52.084;5.224;2023-02-04T02:09:21;103453.0;;;10.15;80.74
36834;BME280;48003;52.084;5.224;2023-02-04T02:10:58;103458.99999999999;;;10.18;80.69
36834;BME280;48003;52.084;5.224;2023-02-04T02:12:34;103458.0;;;10.17;80.77
36834;BME280;48003;52.084;5.224;2023-02-04T02:14:11;103461.99999999999;;;10.21;80.66
36834;BME280;48003;52.084;5.224;2023-02-04T02:17:24;103458.0;;;10.23;80.63
36834;BME280;48003;52.084;5.224;2023-02-04T02:19:01;103458.99999999999;;;10.23;80.61
36834;BME280;48003;52.084;5.224;2023-02-04T02:20:38;103458.0;;;10.21;80.58
36834;BME280;48003;52.084;5.224;2023-02-04T02:24:23;103464.00000000001;;;10.24;80.64
36834;BME280;48003;52.084;5.224;2023-02-04T02:26:01;103459.99999999999;;;10.23;80.62
36834;BME280;48003;52.084;5.224;2023-02-04T02:27:37;103461.99999999999;;;10.16;80.86
36834;BME280;48003;52.084;5.224;2023-02-04T02:29:14;103464.00000000001;;;10.14;81.02
36834;BME280;48003;52.084;5.224;2023-02-04T02:32:27;103467.0;;;10.22;80.7
36834;BME280;48003;52.084;5.224;2023-02-04T02:34:03;103464.00000000001;;;10.17;80.83
36834;BME280;48003;52.084;5.224;2023-02-04T02:35:43;103463.00000000001;;;10.21;80.75
36834;BME280;48003;52.084;5.224;2023-02-04T02:37:21;103466.00000000001;;;10.22;80.77
36834;BME280;48003;52.084;5.224;2023-02-04T02:40:35;103467.0;;;10.19;80.8
36834;BME280;48003;52.084;5.224;2023-02-04T02:42:14;103467.0;;;10.22;80.75
36834;BME280;48003;52.084;5.224;2023-02-04T02:43:51;103471.0;;;10.21;80.86
36834;BME280;48003;52.084;5.224;2023-02-04T02:47:11;103467.0;;;10.25;80.75
36834;BME280;48003;52.084;5.224;2023-02-04T02:48:49;103466.00000000001;;;10.26;80.58
36834;BME280;48003;52.084;5.224;2023-02-04T02:50:26;103473.0;;;10.26;80.69
36834;BME280;48003;52.084;5.224;2023-02-04T02:52:04;103467.0;;;10.23;80.73
36834;BME280;48003;52.084;5.224;2023-02-04T02:55:19;103466.00000000001;;;10.21;80.91
36834;BME280;48003;52.084;5.224;2023-02-04T02:56:56;103471.0;;;10.22;80.77
36834;BME280;48003;52.084;5.224;2023-02-04T02:58:34;103469.0;;;10.13;81.19
36834;BME280;48003;52.084;5.224;2023-02-04T03:01:54;103473.0;;;10.14;81.06
36834;BME280;48003;52.084;5.224;2023-02-04T03:03:34;103474.0;;;10.18;80.95
36834;BME280;48003;52.084;5.224;2023-02-04T03:05:13;103474.0;;;10.14;81.08
36834;BME280;48003;52.084;5.224;2023-02-04T03:06:49;103476.0;;;10.06;81.52
36834;BME280;48003;52.084;5.224;2023-02-04T03:10:04;103476.0;;;10.1;81.22
36834;BME280;48003;52.084;5.224;2023-02-04T03:11:40;103478.0;;;10.07;81.42
36834;BME280;48003;52.084;5.224;2023-02-04T03:13:17;103477.0;;;10.09;81.24
36834;BME280;48003;52.084;5.224;2023-02-04T03:18:11;103476.0;;;10.15;80.92
36834;BME280;48003;52.084;5.224;2023-02-04T03:19:48;103476.0;;;10.18;80.78
36834;BME280;48003;52.084;5.224;2023-02-04T03:21:24;103478.0;;;10.19;80.74
36834;BME280;48003;52.084;5.224;2023-02-04T03:24:37;103473.0;;;10.17;80.72
36834;BME280;48003;52.084;5.224;2023-02-04T03:26:14;103470.0;;;10.16;80.7
36834;BME280;48003;52.084;5.224;2023-02-04T03:27:50;103472.0;;;10.11;80.91
36834;BME280;48003;52.084;5.224;2023-02-04T03:31:04;103472.0;;;10.15;80.69
36834;BME280;48003;52.084;5.224;2023-02-04T03:32:40;103470.0;;;10.11;80.73
36834;BME280;48003;52.084;5.224;2023-02-04T03:34:16;103477.0;;;10.13;80.66
36834;BME280;48003;52.084;5.224;2023-02-04T03:35:53;103475.0;;;10.06;80.8
36834;BME280;48003;52.084;5.224;2023-02-04T03:39:06;103475.0;;;10.0;80.91
36834;BME280;48003;52.084;5.224;2023-02-04T03:40:44;103477.0;;;9.98;81.02
36834;BME280;48003;52.084;5.224;2023-02-04T03:42:21;103477.0;;;9.97;81.02
36834;BME280;48003;52.084;5.224;2023-02-04T03:45:33;103472.0;;;9.93;81.16
36834;BME280;48003;52.084;5.224;2023-02-04T03:47:09;103473.0;;;9.88;81.33
36834;BME280;48003;52.084;5.224;2023-02-04T03:48:45;103480.0;;;9.84;81.47
36834;BME280;48003;52.084;5.224;2023-02-04T03:51:58;103484.99999999999;;;9.85;81.31
36834;BME280;48003;52.084;5.224;2023-02-04T03:53:34;103489.00000000001;;;9.81;81.47
36834;BME280;48003;52.084;5.224;2023-02-04T03:55:10;103490.00000000001;;;9.78;81.45
36834;BME280;48003;52.084;5.224;2023-02-04T03:56:46;103491.00000000001;;;9.76;81.58
36834;BME280;48003;52.084;5.224;2023-02-04T03:59:58;103494.0;;;9.75;81.49
36834;BME280;48003;52.084;5.224;2023-02-04T04:01:34;103496.0;;;9.73;81.52
36834;BME280;48003;52.084;5.224;2023-02-04T04:03:10;103493.0;;;9.65;81.64
36834;BME280;48003;52.084;5.224;2023-02-04T04:06:23;103489.00000000001;;;9.6;81.59
36834;BME280;48003;52.084;5.224;2023-02-04T04:08:00;103494.0;;;9.59;81.61
36834;BME280;48003;52.084;5.224;2023-02-04T04:09:36;103495.0;;;9.56;81.63
36834;BME280;48003;52.084;5.224;2023-02-04T04:12:50;103495.0;;;9.53;81.72
36834;BME280;48003;52.084;5.224;2023-02-04T04:14:26;103497.0;;;9.52;81.61
36834;BME280;48003;52.084;5.224;2023-02-04T04:16:03;103493.0;;;9.49;81.52
36834;BME280;48003;52.084;5.224;2023-02-04T04:17:39;103494.0;;;9.42;81.3
36834;BME280;48003;52.084;5.224;2023-02-04T04:20:51;103497.0;;;9.39;81.34
36834;BME280;48003;52.084;5.224;2023-02-04T04:22:28;103494.0;;;9.38;81.44
36834;BME280;48003;52.084;5.224;2023-02-04T04:24:04;103493.0;;;9.36;81.49
36834;BME280;48003;52.084;5.224;2023-02-04T04:27:17;103500.0;;;9.39;81.67
36834;BME280;48003;52.084;5.224;2023-02-04T04:28:53;103495.0;;;9.41;81.75
36834;BME280;48003;52.084;5.224;2023-02-04T04:30:29;103501.0;;;9.43;81.61
36834;BME280;48003;52.084;5.224;2023-02-04T04:33:42;103504.0;;;9.44;81.81
36834;BME280;48003;52.084;5.224;2023-02-04T04:35:18;103504.0;;;9.48;81.5
36834;BME280;48003;52.084;5.224;2023-02-04T04:36:54;103501.0;;;9.43;81.49
36834;BME280;48003;52.084;5.224;2023-02-04T04:38:30;103504.0;;;9.39;81.31
36834;BME280;48003;52.084;5.224;2023-02-04T04:41:47;103503.0;;;9.39;81.61
36834;BME280;48003;52.084;5.224;2023-02-04T04:43:23;103504.0;;;9.44;81.49
36834;BME280;48003;52.084;5.224;2023-02-04T04:44:59;103516.00000000001;;;9.47;81.47
36834;BME280;48003;52.084;5.224;2023-02-04T04:48:11;103511.99999999999;;;9.48;81.58
36834;BME280;48003;52.084;5.224;2023-02-04T04:49:47;103514.00000000001;;;9.47;81.11
36834;BME280;48003;52.084;5.224;2023-02-04T04:51:24;103509.99999999999;;;9.39;80.91
36834;BME280;48003;52.084;5.224;2023-02-04T04:54:36;103509.99999999999;;;9.34;80.97
36834;BME280;48003;52.084;5.224;2023-02-04T04:56:12;103507.0;;;9.36;81.13
36834;BME280;48003;52.084;5.224;2023-02-04T04:57:48;103504.0;;;9.31;81.19
36834;BME280;48003;52.084;5.224;2023-02-04T05:01:01;103502.0;;;9.28;81.36
36834;BME280;48003;52.084;5.224;2023-02-04T05:02:37;103503.0;;;9.3;81.5
36834;BME280;48003;52.084;5.224;2023-02-04T05:04:13;103501.0;;;9.31;81.47
36834;BME280;48003;52.084;5.224;2023-02-04T05:05:49;103509.99999999999;;;9.32;81.55
36834;BME280;48003;52.084;5.224;2023-02-04T05:09:03;103506.0;;;9.32;81.49
36834;BME280;48003;52.084;5.224;2023-02-04T05:10:40;103508.0;;;9.32;81.55
36834;BME280;48003;52.084;5.224;2023-02-04T05:12:17;103513.00000000001;;;9.36;81.52
36834;BME280;48003;52.084;5.224;2023-02-04T05:15:29;103517.0;;;9.35;81.52
36834;BME280;48003;52.084;5.224;2023-02-04T05:17:05;103515.00000000001;;;9.36;81.55
36834;BME280;48003;52.084;5.224;2023-02-04T05:18:43;103516.00000000001;;;9.36;81.61
36834;BME280;48003;52.084;5.224;2023-02-04T05:21:56;103517.0;;;9.41;81.69
36834;BME280;48003;52.084;5.224;2023-02-04T05:23:33;103515.00000000001;;;9.44;81.89
36834;BME280;48003;52.084;5.224;2023-02-04T05:25:10;103513.00000000001;;;9.44;81.91
36834;BME280;48003;52.084;5.224;2023-02-04T05:26:46;103515.00000000001;;;9.44;82.02
36834;BME280;48003;52.084;5.224;2023-02-04T05:29:58;103509.99999999999;;;9.47;82.11
36834;BME280;48003;52.084;5.224;2023-02-04T05:31:35;103511.99999999999;;;9.53;82.06
36834;BME280;48003;52.084;5.224;2023-02-04T05:33:11;103509.99999999999;;;9.5;82.05
36834;BME280;48003;52.084;5.224;2023-02-04T05:36:23;103516.00000000001;;;9.47;82.05
36834;BME280;48003;52.084;5.224;2023-02-04T05:37:59;103517.0;;;9.47;82.18
36834;BME280;48003;52.084;5.224;2023-02-04T05:39:36;103521.0;;;9.5;82.15
36834;BME280;48003;52.084;5.224;2023-02-04T05:42:48;103524.0;;;9.52;82.19
36834;BME280;48003;52.084;5.224;2023-02-04T05:44:24;103522.0;;;9.57;82.11
36834;BME280;48003;52.084;5.224;2023-02-04T05:46:01;103521.0;;;9.56;82.0
36834;BME280;48003;52.084;5.224;2023-02-04T05:47:38;103533.99999999999;;;9.81;81.27
36834;BME280;48003;52.084;5.224;2023-02-04T05:50:51;103541.00000000001;;;9.64;81.61
36834;BME280;48003;52.084;5.224;2023-02-04T05:52:27;103542.0;;;9.89;80.87
36834;BME280;48003;52.084;5.224;2023-02-04T05:54:03;103549.0;;;9.89;80.77
36834;BME280;48003;52.084;5.224;2023-02-04T05:57:16;103549.0;;;9.88;80.83
36834;BME280;48003;52.084;5.224;2023-02-04T05:58:52;103551.0;;;9.83;81.05
36834;BME280;48003;52.084;5.224;2023-02-04T06:00:28;103553.0;;;9.97;80.78
36834;BME280;48003;52.084;5.224;2023-02-04T06:03:42;103556.0;;;9.92;80.81
36834;BME280;48003;52.084;5.224;2023-02-04T06:05:18;103555.0;;;9.89;80.86
36834;BME280;48003;52.084;5.224;2023-02-04T06:06:54;103558.0;;;9.89;80.83
36834;BME280;48003;52.084;5.224;2023-02-04T06:08:31;103556.0;;;9.83;81.05
36834;BME280;48003;52.084;5.224;2023-02-04T06:11:45;103553.0;;;9.86;80.97
36834;BME280;48003;52.084;5.224;2023-02-04T06:13:21;103556.0;;;9.85;80.95
36834;BME280;48003;52.084;5.224;2023-02-04T06:14:57;103558.0;;;9.94;80.84
36834;BME280;48003;52.084;5.224;2023-02-04T06:18:10;103558.0;;;9.92;80.78
36834;BME280;48003;52.084;5.224;2023-02-04T06:19:46;103567.0;;;9.91;80.8
36834;BME280;48003;52.084;5.224;2023-02-04T06:21:22;103567.0;;;9.83;81.05
36834;BME280;48003;52.084;5.224;2023-02-04T06:24:35;103578.0;;;9.78;81.27
36834;BME280;48003;52.084;5.224;2023-02-04T06:26:12;103579.0;;;9.75;81.47
36834;BME280;48003;52.084;5.224;2023-02-04T06:27:49;103593.0;;;9.67;81.55
36834;BME280;48003;52.084;5.224;2023-02-04T06:29:25;103596.0;;;9.65;81.75
36834;BME280;48003;52.084;5.224;2023-02-04T06:32:39;103595.0;;;9.66;81.58
36834;BME280;48003;52.084;5.224;2023-02-04T06:34:16;103601.0;;;9.61;81.72
36834;BME280;48003;52.084;5.224;2023-02-04T06:35:52;103608.0;;;9.64;81.88
36834;BME280;48003;52.084;5.224;2023-02-04T06:39:06;103609.99999999999;;;9.64;81.92
36834;BME280;48003;52.084;5.224;2023-02-04T06:40:42;103613.00000000001;;;9.64;82.0
36834;BME280;48003;52.084;5.224;2023-02-04T06:42:18;103608.99999999999;;;9.64;81.93
36834;BME280;48003;52.084;5.224;2023-02-04T06:45:30;103608.99999999999;;;9.64;81.87
36834;BME280;48003;52.084;5.224;2023-02-04T06:47:06;103611.99999999999;;;9.59;82.0
36834;BME280;48003;52.084;5.224;2023-02-04T06:48:42;103616.00000000001;;;9.59;82.19
36834;BME280;48003;52.084;5.224;2023-02-04T06:50:18;103617.0;;;9.59;82.2
36834;BME280;48003;52.084;5.224;2023-02-04T06:53:30;103624.0;;;9.59;82.28
36834;BME280;48003;52.084;5.224;2023-02-04T06:55:06;103626.0;;;9.58;82.17
36834;BME280;48003;52.084;5.224;2023-02-04T06:56:42;103624.0;;;9.58;82.19
36834;BME280;48003;52.084;5.224;2023-02-04T06:59:54;103628.0;;;9.58;82.16
36834;BME280;48003;52.084;5.224;2023-02-04T07:01:30;103633.0;;;9.58;82.12
36834;BME280;48003;52.084;5.224;2023-02-04T07:03:06;103629.0;;;9.56;82.1
36834;BME280;48003;52.084;5.224;2023-02-04T07:06:18;103627.0;;;9.56;82.27
36834;BME280;48003;52.084;5.224;2023-02-04T07:07:54;103625.0;;;9.53;82.16
36834;BME280;48003;52.084;5.224;2023-02-04T07:09:31;103627.0;;;9.52;82.35
36834;BME280;48003;52.084;5.224;2023-02-04T07:12:42;103632.0;;;9.51;82.35
36834;BME280;48003;52.084;5.224;2023-02-04T07:14:18;103636.99999999999;;;9.52;82.4
36834;BME280;48003;52.084;5.224;2023-02-04T07:15:54;103633.99999999999;;;9.55;82.43
36834;BME280;48003;52.084;5.224;2023-02-04T07:17:31;103633.0;;;9.56;82.41
36834;BME280;48003;52.084;5.224;2023-02-04T07:20:43;103632.0;;;9.55;82.32
36834;BME280;48003;52.084;5.224;2023-02-04T07:22:19;103632.0;;;9.55;82.31
36834;BME280;48003;52.084;5.224;2023-02-04T07:23:55;103639.00000000001;;;9.53;82.4
36834;BME280;48003;52.084;5.224;2023-02-04T07:27:08;103636.99999999999;;;9.53;82.45
36834;BME280;48003;52.084;5.224;2023-02-04T07:28:44;103642.0;;;9.51;82.54
36834;BME280;48003;52.084;5.224;2023-02-04T07:30:20;103649.0;;;9.5;82.66
36834;BME280;48003;52.084;5.224;2023-02-04T07:33:32;103648.0;;;9.51;82.69
36834;BME280;48003;52.084;5.224;2023-02-04T07:35:08;103653.0;;;9.51;82.74
36834;BME280;48003;52.084;5.224;2023-02-04T07:36:45;103648.0;;;9.53;82.79
36834;BME280;48003;52.084;5.224;2023-02-04T07:39:58;103650.0;;;9.56;82.75
36834;BME280;48003;52.084;5.224;2023-02-04T07:41:35;103665.00000000001;;;9.59;82.71
36834;BME280;48003;52.084;5.224;2023-02-04T07:43:11;103665.00000000001;;;9.61;82.69
36834;BME280;48003;52.084;5.224;2023-02-04T07:44:46;103663.00000000001;;;9.67;82.57
36834;BME280;48003;52.084;5.224;2023-02-04T07:49:33;103667.0;;;9.64;82.54
36834;BME280;48003;52.084;5.224;2023-02-04T07:51:09;103665.00000000001;;;9.65;82.68
36834;BME280;48003;52.084;5.224;2023-02-04T07:54:21;103674.0;;;9.66;82.73
36834;BME280;48003;52.084;5.224;2023-02-04T07:55:56;103678.0;;;9.67;82.69
36834;BME280;48003;52.084;5.224;2023-02-04T07:57:33;103677.0;;;9.68;82.75
36834;BME280;48003;52.084;5.224;2023-02-04T08:00:45;103674.0;;;9.71;82.77
36834;BME280;48003;52.084;5.224;2023-02-04T08:02:22;103677.0;;;9.73;82.75
36834;BME280;48003;52.084;5.224;2023-02-04T08:03:58;103689.00000000001;;;9.72;82.88
36834;BME280;48003;52.084;5.224;2023-02-04T08:07:10;103689.00000000001;;;9.75;82.89
36834;BME280;48003;52.084;5.224;2023-02-04T08:08:46;103690.00000000001;;;9.77;82.93
36834;BME280;48003;52.084;5.224;2023-02-04T08:10:22;103689.00000000001;;;9.82;82.92
36834;BME280;48003;52.084;5.224;2023-02-04T08:11:59;103692.0;;;9.83;82.96
36834;BME280;48003;52.084;5.224;2023-02-04T08:15:12;103694.0;;;9.85;82.91
36834;BME280;48003;52.084;5.224;2023-02-04T08:16:48;103696.0;;;9.93;82.56
36834;BME280;48003;52.084;5.224;2023-02-04T08:18:24;103701.0;;;9.98;82.49
36834;BME280;48003;52.084;5.224;2023-02-04T08:21:36;103706.0;;;10.07;82.17
36834;BME280;48003;52.084;5.224;2023-02-04T08:23:12;103707.0;;;10.1;82.09
36834;BME280;48003;52.084;5.224;2023-02-04T08:24:48;103709.99999999999;;;10.09;82.17
36834;BME280;48003;52.084;5.224;2023-02-04T08:28:01;103716.00000000001;;;10.09;82.2
36834;BME280;48003;52.084;5.224;2023-02-04T08:29:38;103711.99999999999;;;10.17;82.18
36834;BME280;48003;52.084;5.224;2023-02-04T08:31:14;103709.99999999999;;;10.23;81.91
36834;BME280;48003;52.084;5.224;2023-02-04T08:32:50;103709.99999999999;;;10.22;82.01
36834;BME280;48003;52.084;5.224;2023-02-04T08:36:03;103716.00000000001;;;10.22;81.97
36834;BME280;48003;52.084;5.224;2023-02-04T08:37:40;103717.0;;;10.17;82.26
36834;BME280;48003;52.084;5.224;2023-02-04T08:39:15;103722.0;;;10.19;82.38
36834;BME280;48003;52.084;5.224;2023-02-04T08:42:28;103721.0;;;10.19;82.46
36834;BME280;48003;52.084;5.224;2023-02-04T08:44:05;103720.0;;;10.18;82.6
36834;BME280;48003;52.084;5.224;2023-02-04T08:45:42;103719.0;;;10.22;82.69
36834;BME280;48003;52.084;5.224;2023-02-04T08:48:54;103724.0;;;10.23;82.86
36834;BME280;48003;52.084;5.224;2023-02-04T08:50:31;103719.0;;;10.23;82.91
36834;BME280;48003;52.084;5.224;2023-02-04T08:52:07;103727.0;;;10.27;82.88
36834;BME280;48003;52.084;5.224;2023-02-04T08:53:44;103730.0;;;10.31;82.85
36834;BME280;48003;52.084;5.224;2023-02-04T08:56:56;103733.99999999999;;;10.41;82.48
36834;BME280;48003;52.084;5.224;2023-02-04T08:58:33;103736.99999999999;;;10.43;82.35
36834;BME280;48003;52.084;5.224;2023-02-04T09:00:11;103740.00000000001;;;10.47;82.29
36834;BME280;48003;52.084;5.224;2023-02-04T09:03:25;103742.0;;;10.52;82.14
36834;BME280;48003;52.084;5.224;2023-02-04T09:05:01;103739.00000000001;;;10.58;81.8
36834;BME280;48003;52.084;5.224;2023-02-04T09:06:37;103739.00000000001;;;10.63;81.61
36834;BME280;48003;52.084;5.224;2023-02-04T09:09:50;103740.00000000001;;;10.62;81.55
36834;BME280;48003;52.084;5.224;2023-02-04T09:11:27;103742.0;;;10.66;81.39
36834;BME280;48003;52.084;5.224;2023-02-04T09:13:03;103742.0;;;10.73;81.16
36834;BME280;48003;52.084;5.224;2023-02-04T09:14:39;103740.00000000001;;;10.81;80.75
36834;BME280;48003;52.084;5.224;2023-02-04T09:18:00;103738.00000000001;;;10.83;80.58
36834;BME280;48003;52.084;5.224;2023-02-04T09:19:36;103738.00000000001;;;10.86;80.66
36834;BME280;48003;52.084;5.224;2023-02-04T09:21:12;103734.99999999999;;;10.92;80.48
36834;BME280;48003;52.084;5.224;2023-02-04T09:24:25;103738.00000000001;;;10.95;80.2
36834;BME280;48003;52.084;5.224;2023-02-04T09:26:03;103741.00000000001;;;10.99;79.99
36834;BME280;48003;52.084;5.224;2023-02-04T09:27:40;103743.0;;;11.03;79.75
36834;BME280;48003;52.084;5.224;2023-02-04T09:30:53;103742.0;;;11.02;79.81
36834;BME280;48003;52.084;5.224;2023-02-04T09:32:29;103741.00000000001;;;11.07;79.77
36834;BME280;48003;52.084;5.224;2023-02-04T09:34:05;103740.00000000001;;;11.15;79.44
36834;BME280;48003;52.084;5.224;2023-02-04T09:35:41;103740.00000000001;;;11.18;78.69
36834;BME280;48003;52.084;5.224;2023-02-04T09:38:54;103740.00000000001;;;11.21;78.5
36834;BME280;48003;52.084;5.224;2023-02-04T09:40:33;103748.0;;;11.26;78.23
36834;BME280;48003;52.084;5.224;2023-02-04T09:42:12;103748.0;;;11.37;78.36
36834;BME280;48003;52.084;5.224;2023-02-04T09:45:29;103750.0;;;11.38;78.22
36834;BME280;48003;52.084;5.224;2023-02-04T09:47:10;103752.0;;;11.4;78.02
36834;BME280;48003;52.084;5.224;2023-02-04T09:48:49;103754.0;;;11.43;77.72
36834;BME280;48003;52.084;5.224;2023-02-04T09:50:27;103754.0;;;11.42;77.52
36834;BME280;48003;52.084;5.224;2023-02-04T09:53:45;103758.0;;;11.43;77.75
36834;BME280;48003;52.084;5.224;2023-02-04T09:55:27;103763.00000000001;;;11.44;77.8
36834;BME280;48003;52.084;5.224;2023-02-04T09:57:13;103763.00000000001;;;11.44;78.0
36834;BME280;48003;52.084;5.224;2023-02-04T09:58:51;103764.00000000001;;;11.46;78.08
36834;BME280;48003;52.084;5.224;2023-02-04T10:02:19;103767.0;;;11.59;77.83
36834;BME280;48003;52.084;5.224;2023-02-04T10:04:00;103772.0;;;11.73;76.91
36834;BME280;48003;52.084;5.224;2023-02-04T10:05:37;103772.0;;;11.77;76.42
36834;BME280;48003;52.084;5.224;2023-02-04T10:07:16;103768.0;;;11.76;75.87
36834;BME280;48003;52.084;5.224;2023-02-04T10:10:32;103771.0;;;11.83;74.66
36834;BME280;48003;52.084;5.224;2023-02-04T10:12:08;103773.0;;;11.81;75.38
36834;BME280;48003;52.084;5.224;2023-02-04T10:13:46;103779.0;;;11.94;74.23
36834;BME280;48003;52.084;5.224;2023-02-04T10:15:23;103780.0;;;12.01;73.37
36834;BME280;48003;52.084;5.224;2023-02-04T10:18:38;103776.0;;;12.12;73.12
36834;BME280;48003;52.084;5.224;2023-02-04T10:20:15;103777.0;;;12.12;72.19
36834;BME280;48003;52.084;5.224;2023-02-04T10:21:54;103776.0;;;12.1;72.11
36834;BME280;48003;52.084;5.224;2023-02-04T10:25:11;103775.0;;;12.22;71.62
36834;BME280;48003;52.084;5.224;2023-02-04T10:26:48;103783.0;;;12.1;72.03
36834;BME280;48003;52.084;5.224;2023-02-04T10:28:32;103778.0;;;12.26;71.37
36834;BME280;48003;52.084;5.224;2023-02-04T10:30:17;103782.0;;;12.3;71.64
36834;BME280;48003;52.084;5.224;2023-02-04T10:33:32;103781.0;;;12.28;71.87
36834;BME280;48003;52.084;5.224;2023-02-04T10:35:12;103783.99999999999;;;12.45;70.09
36834;BME280;48003;52.084;5.224;2023-02-04T10:36:52;103783.0;;;12.13;70.36
36834;BME280;48003;52.084;5.224;2023-02-04T10:38:29;103783.99999999999;;;11.96;70.88
36834;BME280;48003;52.084;5.224;2023-02-04T10:42:02;103782.0;;;12.4;69.97
36834;BME280;48003;52.084;5.224;2023-02-04T10:43:38;103774.0;;;12.57;68.75
36834;BME280;48003;52.084;5.224;2023-02-04T10:45:22;103776.0;;;12.38;69.37
36834;BME280;48003;52.084;5.224;2023-02-04T10:46:59;103773.0;;;12.65;68.91
36834;BME280;48003;52.084;5.224;2023-02-04T10:50:18;103781.0;;;12.44;68.62